Decoded Metar for KOKC (OKLAHOMA CITY in OK, USA) (IATA:OKC) | Meteo·Mobile Aviation Weather
aviador You're here:

KOKC Decoded Metar

OKLAHOMA CITY in OK, USA
Report Time2018-10-18 09:52:00
UTC Time2018-10-18 10:15:34
Flight Rules vfr VFR
Wind020° at 03 kt
W.Decomp.*RWY 36: 2.9 kt HW 0.8 kt RCW
RWY 35: 2.7 kt HW 1.3 kt RCW
RWY 31: 1.3 kt HW 2.7 kt RCW
W.Rank020° ranks 14
Current wind is below 020° avg. (10.6)
Visibility9999 m
Phenomena:N/A
Clouds:Overcast 090 Hf
Expected CloudBase > 2,000 ft AGL from Temp-Dew spread
Ceiling9,000 ft
Temp13°C (ISA +1)
Dew Point08°C (72% RH)
AAT11.5°C
QNH1030 hPa
Density Alt922 ft
Elevation1,280 ft
Report Wrong Elevation
Raw Report
KOKC 180952Z 02003KT 10SM OVC090 13/08 A3043 RMK AO2 SLP301
T01280078=

Extra information for KOKC:More info

Metar Taf Metar & Taf Last 4 Metars F.Rules Stats Wind Profile Meteogram Temp Stats Airport Information Weather charts Add Link Nearby VenuesMetar ALERT Operation Metar Decoded Social comments

AIRNAV info for KOKC